Time;durP1;ratioP1;P1;durP2;ratioP2;P2;SDS_P1;SDS_P2;PMS_P1;PMS_P2;Temp;Humidity;BMP_temperature;BMP_pressure;BME280_temperature;BME280_humidity;BME280_pressure;Samples;Min_cycle;Max_cycle;Signal;HPM_P1;HPM_P2
2024/02/29 00:01:43;;;;;;;34.63;16.10;;;;;;;;;;5052028;28;20195;-77
2024/02/29 00:04:09;;;;;;;33.63;15.60;;;;;;;;;;5067437;28;20184;-77
2024/02/29 00:06:34;;;;;;;33.30;16.08;;;;;;;;;;5050682;28;20585;-76
2024/02/29 00:09:00;;;;;;;37.03;15.80;;;;;;;;;;5043030;28;20204;-76
2024/02/29 00:11:26;;;;;;;31.47;15.23;;;;;;;;;;5042577;28;20271;-76
2024/02/29 00:13:52;;;;;;;32.80;15.47;;;;;;;;;;5063813;28;20197;-77
2024/02/29 00:16:18;;;;;;;30.07;14.90;;;;;;;;;;5049475;28;20205;-77
2024/02/29 00:18:45;;;;;;;31.52;15.02;;;;;;;;;;5063774;28;20205;-78
2024/02/29 00:21:10;;;;;;;30.17;14.70;;;;;;;;;;5039105;28;20259;-76
2024/02/29 00:23:36;;;;;;;27.90;14.27;;;;;;;;;;5062756;28;20189;-76
2024/02/29 00:26:01;;;;;;;29.30;13.70;;;;;;;;;;5057007;28;20207;-76
2024/02/29 00:28:27;;;;;;;29.20;14.30;;;;;;;;;;5053130;28;20298;-77
2024/02/29 00:30:52;;;;;;;30.57;13.73;;;;;;;;;;5060850;28;20500;-76
2024/02/29 00:33:18;;;;;;;29.50;13.93;;;;;;;;;;5060499;28;20868;-76
2024/02/29 00:35:43;;;;;;;30.93;14.27;;;;;;;;;;5060762;28;20716;-76
2024/02/29 00:38:10;;;;;;;26.83;13.40;;;;;;;;;;5052526;28;20208;-76
2024/02/29 00:40:36;;;;;;;23.47;12.40;;;;;;;;;;5064565;28;20184;-77
2024/02/29 00:43:01;;;;;;;30.07;12.93;;;;;;;;;;5063689;28;20199;-76
2024/02/29 00:45:27;;;;;;;24.43;11.53;;;;;;;;;;5056510;28;20644;-76
2024/02/29 00:47:54;;;;;;;25.97;12.20;;;;;;;;;;5038328;28;20675;-77
2024/02/29 00:50:23;;;;;;;24.33;12.43;;;;;;;;;;5038917;28;20203;-76
2024/02/29 00:52:48;;;;;;;21.30;11.67;;;;;;;;;;5054540;28;20393;-77
2024/02/29 00:55:14;;;;;;;21.00;11.23;;;;;;;;;;5062375;28;20557;-77
2024/02/29 00:57:40;;;;;;;20.60;11.37;;;;;;;;;;5065041;28;20602;-76
2024/02/29 01:00:11;;;;;;;24.92;11.50;;;;;;;;;;5039061;28;20204;-76
2024/02/29 01:02:37;;;;;;;23.70;10.53;;;;;;;;;;5063690;28;20198;-76
2024/02/29 01:05:03;;;;;;;25.57;12.00;;;;;;;;;;5063608;28;20184;-76
2024/02/29 01:07:28;;;;;;;23.40;11.07;;;;;;;;;;5047537;28;20190;-76
2024/02/29 01:09:56;;;;;;;23.97;10.87;;;;;;;;;;5063361;28;20644;-76
2024/02/29 01:12:21;;;;;;;27.17;11.00;;;;;;;;;;5054321;28;20559;-76
2024/02/29 01:14:47;;;;;;;23.30;11.37;;;;;;;;;;5062866;28;20259;-76
2024/02/29 01:17:12;;;;;;;20.37;11.03;;;;;;;;;;5068604;28;20322;-76
2024/02/29 01:19:38;;;;;;;24.40;11.37;;;;;;;;;;5068156;28;20341;-76
2024/02/29 01:22:04;;;;;;;24.53;11.77;;;;;;;;;;5061097;28;20197;-76
2024/02/29 01:24:29;;;;;;;22.73;12.07;;;;;;;;;;5056530;28;20200;-77
2024/02/29 01:26:54;;;;;;;22.80;11.13;;;;;;;;;;5061725;28;20612;-76
2024/02/29 01:29:20;;;;;;;23.27;11.43;;;;;;;;;;5070448;28;20194;-76
2024/02/29 01:31:46;;;;;;;22.97;11.43;;;;;;;;;;5064160;28;20682;-76
2024/02/29 01:34:11;;;;;;;23.40;11.80;;;;;;;;;;5061613;28;20236;-77
2024/02/29 01:36:37;;;;;;;21.40;11.67;;;;;;;;;;5066702;28;20572;-76
2024/02/29 01:39:03;;;;;;;21.13;11.97;;;;;;;;;;5066938;28;20648;-76
2024/02/29 01:41:28;;;;;;;25.83;12.20;;;;;;;;;;5060744;28;20262;-76
2024/02/29 01:43:54;;;;;;;22.10;11.23;;;;;;;;;;5057370;28;20271;-76
2024/02/29 01:46:20;;;;;;;23.93;12.03;;;;;;;;;;5053053;28;20250;-76
2024/02/29 01:48:48;;;;;;;24.20;12.57;;;;;;;;;;5061906;28;20196;-76
2024/02/29 01:51:16;;;;;;;25.87;11.83;;;;;;;;;;5036809;28;20186;-76
2024/02/29 01:53:42;;;;;;;29.90;12.10;;;;;;;;;;5066864;28;20651;-76
2024/02/29 01:56:10;;;;;;;22.67;12.80;;;;;;;;;;5064484;28;20288;-76
2024/02/29 01:58:36;;;;;;;24.60;11.83;;;;;;;;;;5059235;28;20378;-76
2024/02/29 02:01:02;;;;;;;24.23;12.40;;;;;;;;;;5069977;28;20352;-76
2024/02/29 02:03:28;;;;;;;23.73;13.03;;;;;;;;;;5067586;28;20181;-77
2024/02/29 02:05:53;;;;;;;27.43;14.33;;;;;;;;;;5051223;28;20184;-75
2024/02/29 02:08:19;;;;;;;28.70;11.77;;;;;;;;;;5061295;28;20181;-76
2024/02/29 02:10:44;;;;;;;23.70;11.70;;;;;;;;;;5066292;28;20189;-77
2024/02/29 02:13:10;;;;;;;23.43;11.73;;;;;;;;;;5069135;28;20191;-75
2024/02/29 02:15:35;;;;;;;23.53;12.20;;;;;;;;;;5062327;28;20288;-75
2024/02/29 02:18:00;;;;;;;22.63;11.83;;;;;;;;;;5067934;28;20184;-75
2024/02/29 02:20:26;;;;;;;23.33;11.90;;;;;;;;;;5063929;28;20199;-75
2024/02/29 02:22:51;;;;;;;22.17;11.57;;;;;;;;;;5064660;28;20192;-75
2024/02/29 02:25:17;;;;;;;22.00;11.83;;;;;;;;;;5065774;28;20271;-75
2024/02/29 02:27:42;;;;;;;23.33;10.67;;;;;;;;;;5057022;28;20231;-75
2024/02/29 02:30:08;;;;;;;19.83;10.30;;;;;;;;;;5056946;28;20185;-75
2024/02/29 02:32:37;;;;;;;24.33;11.43;;;;;;;;;;5053362;28;20181;-75
2024/02/29 02:35:06;;;;;;;19.90;10.70;;;;;;;;;;5066747;28;20307;-75
2024/02/29 02:37:36;;;;;;;16.77;9.30;;;;;;;;;;5068474;28;20268;-75
2024/02/29 02:40:04;;;;;;;21.67;10.87;;;;;;;;;;5066383;28;20220;-75
2024/02/29 02:42:30;;;;;;;19.27;9.60;;;;;;;;;;5068343;28;20205;-75
2024/02/29 02:44:56;;;;;;;17.70;9.40;;;;;;;;;;5067240;28;20213;-75
2024/02/29 02:47:21;;;;;;;19.10;9.23;;;;;;;;;;5069244;28;20660;-75
2024/02/29 02:49:47;;;;;;;20.27;9.90;;;;;;;;;;5064598;28;20272;-75
2024/02/29 02:52:13;;;;;;;18.40;9.37;;;;;;;;;;5065742;28;20219;-75
2024/02/29 02:54:39;;;;;;;20.27;9.00;;;;;;;;;;5068447;28;20189;-75
2024/02/29 02:57:05;;;;;;;16.03;9.10;;;;;;;;;;5069001;28;20280;-75
2024/02/29 02:59:30;;;;;;;14.33;7.70;;;;;;;;;;5050046;28;20251;-75
2024/02/29 03:01:55;;;;;;;17.10;8.27;;;;;;;;;;5056661;28;20246;-75
2024/02/29 03:04:21;;;;;;;17.37;9.30;;;;;;;;;;5053543;28;20216;-76
2024/02/29 03:06:47;;;;;;;15.50;8.57;;;;;;;;;;5078718;28;20296;-75
2024/02/29 03:09:12;;;;;;;16.83;8.50;;;;;;;;;;5058551;28;20563;-75
2024/02/29 03:11:38;;;;;;;15.57;8.30;;;;;;;;;;5068060;28;20185;-75
2024/02/29 03:14:04;;;;;;;15.90;7.80;;;;;;;;;;5065642;28;20213;-75
2024/02/29 03:16:30;;;;;;;14.53;7.90;;;;;;;;;;5049315;28;20224;-76
2024/02/29 03:18:55;;;;;;;12.87;7.17;;;;;;;;;;5042013;28;20308;-76
2024/02/29 03:21:21;;;;;;;15.67;7.67;;;;;;;;;;5050848;28;20228;-75
2024/02/29 03:23:47;;;;;;;13.67;7.50;;;;;;;;;;5061429;28;20193;-75
2024/02/29 03:26:12;;;;;;;12.90;7.10;;;;;;;;;;5064897;28;20196;-75
2024/02/29 03:28:38;;;;;;;13.17;7.37;;;;;;;;;;5069515;28;20185;-75
2024/02/29 03:31:03;;;;;;;12.33;7.60;;;;;;;;;;5062518;28;20189;-76
2024/02/29 03:33:29;;;;;;;14.10;7.60;;;;;;;;;;5059674;28;20201;-75
2024/02/29 03:35:54;;;;;;;12.33;7.30;;;;;;;;;;5059408;28;20239;-75
2024/02/29 03:38:19;;;;;;;12.33;7.43;;;;;;;;;;5065556;28;20188;-75
2024/02/29 03:40:45;;;;;;;11.33;6.97;;;;;;;;;;5058426;28;20197;-75
2024/02/29 03:43:11;;;;;;;14.50;7.80;;;;;;;;;;5063565;28;20630;-76
2024/02/29 03:45:36;;;;;;;14.17;7.27;;;;;;;;;;5061492;28;20219;-76
2024/02/29 03:48:01;;;;;;;13.50;7.53;;;;;;;;;;5065650;28;20465;-76
2024/02/29 03:50:27;;;;;;;12.40;6.63;;;;;;;;;;5062343;28;20275;-76
2024/02/29 03:52:53;;;;;;;10.57;6.83;;;;;;;;;;5066833;28;20193;-76
2024/02/29 03:55:18;;;;;;;12.83;7.43;;;;;;;;;;5050260;28;20688;-76
2024/02/29 03:57:44;;;;;;;13.97;7.20;;;;;;;;;;5052983;28;20443;-76
2024/02/29 04:00:13;;;;;;;16.93;7.40;;;;;;;;;;5063439;28;20193;-76
2024/02/29 04:02:39;;;;;;;11.83;6.70;;;;;;;;;;5054818;28;20185;-76
2024/02/29 04:05:07;;;;;;;11.67;6.83;;;;;;;;;;5065098;28;20204;-76
2024/02/29 04:07:37;;;;;;;11.97;6.87;;;;;;;;;;5056012;28;20263;-76
2024/02/29 04:10:04;;;;;;;14.60;6.90;;;;;;;;;;5066325;28;20195;-75
2024/02/29 04:12:30;;;;;;;10.25;6.43;;;;;;;;;;5058184;28;20632;-76
2024/02/29 04:14:55;;;;;;;11.33;6.33;;;;;;;;;;5052583;28;20288;-76
2024/02/29 04:17:21;;;;;;;15.13;7.40;;;;;;;;;;5063934;28;20277;-76
2024/02/29 04:19:46;;;;;;;13.23;6.63;;;;;;;;;;5066313;28;20243;-76
2024/02/29 04:22:14;;;;;;;13.53;6.93;;;;;;;;;;5055966;28;20188;-76
2024/02/29 04:24:40;;;;;;;14.65;6.65;;;;;;;;;;5051805;28;20340;-76
2024/02/29 04:27:05;;;;;;;13.37;6.77;;;;;;;;;;5056494;28;20281;-76
2024/02/29 04:29:31;;;;;;;12.23;6.90;;;;;;;;;;5076089;28;20196;-76
2024/02/29 04:31:56;;;;;;;11.75;6.32;;;;;;;;;;5052141;28;20204;-76
2024/02/29 04:34:21;;;;;;;9.93;6.25;;;;;;;;;;5057640;28;20326;-76
2024/02/29 04:36:47;;;;;;;11.15;6.03;;;;;;;;;;5048343;28;20621;-76
2024/02/29 04:39:13;;;;;;;12.90;6.57;;;;;;;;;;5050581;28;20267;-76
2024/02/29 04:41:39;;;;;;;11.27;6.03;;;;;;;;;;5055381;28;20196;-76
2024/02/29 04:44:04;;;;;;;10.90;6.50;;;;;;;;;;5045429;28;20305;-76
2024/02/29 04:46:30;;;;;;;13.20;7.10;;;;;;;;;;5064462;28;20185;-76
2024/02/29 04:48:55;;;;;;;11.17;6.80;;;;;;;;;;5065205;28;20194;-76
2024/02/29 04:51:21;;;;;;;11.70;6.73;;;;;;;;;;5036691;28;20180;-77
2024/02/29 04:53:47;;;;;;;11.27;6.30;;;;;;;;;;5031732;28;20185;-76
2024/02/29 04:56:13;;;;;;;10.87;6.40;;;;;;;;;;5052418;28;20205;-77
2024/02/29 04:58:38;;;;;;;10.37;5.97;;;;;;;;;;5067048;28;20211;-76
2024/02/29 05:01:04;;;;;;;9.03;6.23;;;;;;;;;;5054114;28;20197;-76
2024/02/29 05:03:29;;;;;;;13.13;7.37;;;;;;;;;;5034565;28;20195;-76
2024/02/29 05:05:55;;;;;;;13.67;6.93;;;;;;;;;;5041594;28;20185;-76
2024/02/29 05:08:20;;;;;;;12.63;6.17;;;;;;;;;;5067163;28;20204;-77
2024/02/29 05:10:46;;;;;;;11.47;6.07;;;;;;;;;;5068689;28;20189;-76
2024/02/29 05:13:11;;;;;;;11.10;5.80;;;;;;;;;;5056020;28;20207;-77
2024/02/29 05:15:38;;;;;;;13.23;8.23;;;;;;;;;;5052409;28;20202;-77
2024/02/29 05:18:06;;;;;;;13.13;6.57;;;;;;;;;;5043999;28;20327;-77
2024/02/29 05:20:32;;;;;;;10.27;6.50;;;;;;;;;;5062603;28;20201;-76
2024/02/29 05:22:57;;;;;;;14.73;7.00;;;;;;;;;;5067566;28;20331;-76
2024/02/29 05:25:23;;;;;;;12.93;6.37;;;;;;;;;;5066485;28;20350;-77
2024/02/29 05:27:49;;;;;;;12.60;6.70;;;;;;;;;;5061510;28;20192;-76
2024/02/29 05:30:14;;;;;;;15.20;6.60;;;;;;;;;;5063850;28;20258;-76
2024/02/29 05:32:40;;;;;;;10.63;6.10;;;;;;;;;;5060386;28;20636;-75
2024/02/29 05:35:07;;;;;;;12.20;6.17;;;;;;;;;;5061277;28;20455;-75
2024/02/29 05:37:33;;;;;;;12.77;6.47;;;;;;;;;;5048297;28;20196;-75
2024/02/29 05:39:58;;;;;;;11.37;5.80;;;;;;;;;;5064815;28;20563;-75
2024/02/29 05:42:26;;;;;;;11.87;6.57;;;;;;;;;;5063097;28;20196;-76
2024/02/29 05:44:54;;;;;;;10.43;6.57;;;;;;;;;;5062682;28;20190;-76
2024/02/29 05:47:20;;;;;;;12.63;6.67;;;;;;;;;;5058910;28;20189;-76
2024/02/29 05:49:46;;;;;;;10.77;6.83;;;;;;;;;;5059613;28;20785;-76
2024/02/29 05:52:11;;;;;;;10.97;6.67;;;;;;;;;;5045956;28;20192;-76
2024/02/29 05:54:37;;;;;;;11.87;6.70;;;;;;;;;;5060581;28;20189;-76
2024/02/29 05:57:03;;;;;;;13.30;6.70;;;;;;;;;;5053797;28;20540;-76
2024/02/29 05:59:29;;;;;;;9.67;6.43;;;;;;;;;;5069119;28;20201;-76
2024/02/29 06:01:54;;;;;;;9.40;6.87;;;;;;;;;;5064371;28;20617;-75
2024/02/29 06:04:20;;;;;;;11.80;6.13;;;;;;;;;;5068158;28;20188;-76
2024/02/29 06:06:45;;;;;;;11.13;6.97;;;;;;;;;;5063036;28;20209;-76
2024/02/29 06:09:14;;;;;;;10.85;6.35;;;;;;;;;;5059761;28;20212;-76
2024/02/29 06:11:43;;;;;;;13.20;6.60;;;;;;;;;;5068347;28;20530;-76
2024/02/29 06:14:09;;;;;;;15.33;6.67;;;;;;;;;;5066894;28;20514;-76
2024/02/29 06:16:35;;;;;;;13.83;6.67;;;;;;;;;;5060242;28;20228;-76
2024/02/29 06:19:01;;;;;;;13.10;6.97;;;;;;;;;;5050546;28;20243;-76
2024/02/29 06:21:26;;;;;;;10.60;6.30;;;;;;;;;;5064829;28;20177;-76
2024/02/29 06:23:53;;;;;;;12.27;6.87;;;;;;;;;;5069025;28;20533;-76
2024/02/29 06:26:19;;;;;;;9.40;6.23;;;;;;;;;;5066058;28;20657;-77
2024/02/29 06:28:44;;;;;;;11.23;6.80;;;;;;;;;;5063629;28;20340;-76
2024/02/29 06:31:10;;;;;;;11.50;6.87;;;;;;;;;;5054033;28;20194;-76
2024/02/29 06:33:36;;;;;;;11.60;6.70;;;;;;;;;;5058899;28;20629;-76
2024/02/29 06:36:03;;;;;;;14.57;6.73;;;;;;;;;;5067167;28;20200;-76
2024/02/29 06:38:29;;;;;;;12.13;6.77;;;;;;;;;;5060866;28;20196;-76
2024/02/29 06:40:54;;;;;;;11.23;6.53;;;;;;;;;;5065225;28;20188;-75
2024/02/29 06:43:20;;;;;;;10.07;6.73;;;;;;;;;;5070510;28;20195;-76
2024/02/29 06:45:48;;;;;;;10.32;6.03;;;;;;;;;;5061106;28;20234;-77
2024/02/29 06:48:15;;;;;;;13.23;6.33;;;;;;;;;;5064675;28;20219;-76
2024/02/29 06:50:41;;;;;;;11.57;6.90;;;;;;;;;;5065229;28;20209;-76
2024/02/29 06:53:06;;;;;;;14.23;6.77;;;;;;;;;;5065236;28;20212;-76
2024/02/29 06:55:32;;;;;;;11.23;6.17;;;;;;;;;;5074267;28;20287;-76
2024/02/29 06:57:57;;;;;;;14.40;6.57;;;;;;;;;;5066338;28;20582;-76
2024/02/29 07:00:24;;;;;;;12.60;6.33;;;;;;;;;;5054494;28;20268;-76
2024/02/29 07:02:50;;;;;;;12.07;6.80;;;;;;;;;;5068281;28;20598;-76
2024/02/29 07:05:16;;;;;;;11.40;6.70;;;;;;;;;;5066524;28;20196;-76
2024/02/29 07:07:42;;;;;;;10.30;6.77;;;;;;;;;;5060687;28;20211;-75
2024/02/29 07:10:11;;;;;;;13.50;7.33;;;;;;;;;;5062160;28;20663;-76
2024/02/29 07:12:36;;;;;;;12.95;7.22;;;;;;;;;;5048489;28;20177;-74
2024/02/29 07:15:03;;;;;;;12.82;7.18;;;;;;;;;;5041687;28;20199;-74
2024/02/29 07:17:29;;;;;;;13.82;6.97;;;;;;;;;;5043230;28;20174;-74
2024/02/29 07:19:55;;;;;;;13.60;7.22;;;;;;;;;;5063634;28;20498;-75
2024/02/29 07:22:20;;;;;;;12.25;6.68;;;;;;;;;;5042508;28;20200;-75
2024/02/29 07:24:46;;;;;;;10.93;7.03;;;;;;;;;;5075902;28;20197;-74
2024/02/29 07:27:13;;;;;;;13.20;7.07;;;;;;;;;;5074892;28;20275;-75
2024/02/29 07:29:39;;;;;;;12.25;7.15;;;;;;;;;;5058642;28;20238;-75
2024/02/29 07:32:04;;;;;;;12.68;7.60;;;;;;;;;;5068098;28;20189;-74
2024/02/29 07:34:30;;;;;;;11.93;7.18;;;;;;;;;;5069234;28;20229;-75
2024/02/29 07:36:55;;;;;;;11.85;6.38;;;;;;;;;;5070045;28;20279;-75
2024/02/29 07:39:21;;;;;;;13.85;6.78;;;;;;;;;;5068873;28;20185;-75
2024/02/29 07:41:47;;;;;;;15.63;7.72;;;;;;;;;;5066047;28;20198;-75
2024/02/29 07:44:12;;;;;;;13.73;6.97;;;;;;;;;;5058227;28;20217;-75
2024/02/29 07:46:38;;;;;;;13.15;8.00;;;;;;;;;;5066191;28;20266;-75
2024/02/29 07:49:04;;;;;;;12.82;7.45;;;;;;;;;;5063503;28;20177;-75
2024/02/29 07:51:29;;;;;;;11.55;7.47;;;;;;;;;;5066915;28;20505;-76
2024/02/29 07:53:54;;;;;;;16.60;8.60;;;;;;;;;;5068677;28;20602;-75
2024/02/29 07:56:20;;;;;;;13.23;8.10;;;;;;;;;;5045036;28;20213;-75
2024/02/29 07:58:46;;;;;;;13.60;7.90;;;;;;;;;;5066056;28;20189;-76
2024/02/29 08:01:12;;;;;;;15.30;7.82;;;;;;;;;;5066776;28;20208;-75
2024/02/29 08:03:38;;;;;;;14.73;8.50;;;;;;;;;;5063041;28;20185;-76
2024/02/29 08:06:05;;;;;;;15.65;8.45;;;;;;;;;;5062668;28;20524;-76
2024/02/29 08:08:30;;;;;;;16.42;9.80;;;;;;;;;;5058195;28;20284;-76
2024/02/29 08:10:56;;;;;;;15.38;9.20;;;;;;;;;;5066049;28;20311;-75
2024/02/29 08:13:21;;;;;;;16.42;9.13;;;;;;;;;;5067150;28;20607;-76
2024/02/29 08:15:47;;;;;;;16.40;9.52;;;;;;;;;;5058770;28;20498;-77
2024/02/29 08:18:13;;;;;;;19.13;9.32;;;;;;;;;;5068694;28;20596;-77
2024/02/29 08:20:40;;;;;;;17.95;9.93;;;;;;;;;;5067480;28;20259;-76
2024/02/29 08:23:05;;;;;;;16.30;9.57;;;;;;;;;;5066637;28;20181;-76
2024/02/29 08:25:31;;;;;;;14.80;9.13;;;;;;;;;;5067452;28;20188;-77
2024/02/29 08:27:56;;;;;;;16.95;8.90;;;;;;;;;;5065676;28;20307;-76
2024/02/29 08:30:23;;;;;;;17.33;8.65;;;;;;;;;;5054671;28;20213;-76
2024/02/29 08:32:49;;;;;;;18.70;9.27;;;;;;;;;;5052195;28;20269;-77
2024/02/29 08:35:16;;;;;;;17.25;9.23;;;;;;;;;;5068307;28;20220;-76
2024/02/29 08:37:43;;;;;;;17.75;9.25;;;;;;;;;;5068747;28;20589;-77
2024/02/29 08:40:09;;;;;;;14.07;8.82;;;;;;;;;;5068346;28;20259;-77
2024/02/29 08:42:35;;;;;;;20.58;9.30;;;;;;;;;;5066393;28;20614;-76
2024/02/29 08:45:00;;;;;;;16.35;9.20;;;;;;;;;;5050439;28;20276;-76
2024/02/29 08:47:26;;;;;;;17.00;9.98;;;;;;;;;;5064724;28;20205;-76
2024/02/29 08:49:52;;;;;;;19.02;9.93;;;;;;;;;;5068554;28;20268;-76
2024/02/29 08:52:18;;;;;;;14.25;8.25;;;;;;;;;;5069109;28;20188;-76
2024/02/29 08:54:44;;;;;;;15.80;8.85;;;;;;;;;;5066264;28;20185;-77
2024/02/29 08:57:10;;;;;;;17.80;8.75;;;;;;;;;;5064705;28;20296;-76
2024/02/29 08:59:35;;;;;;;16.52;8.70;;;;;;;;;;5048737;28;20185;-76
2024/02/29 09:02:01;;;;;;;15.88;9.00;;;;;;;;;;5063906;28;20247;-77
2024/02/29 09:04:27;;;;;;;16.55;9.27;;;;;;;;;;5068505;28;20197;-76
2024/02/29 09:06:53;;;;;;;16.27;8.40;;;;;;;;;;5061467;28;20634;-76
2024/02/29 09:09:18;;;;;;;14.95;8.95;;;;;;;;;;5055927;28;20193;-76
2024/02/29 09:11:44;;;;;;;13.88;8.63;;;;;;;;;;5048435;28;20271;-76
2024/02/29 09:14:09;;;;;;;14.10;8.52;;;;;;;;;;5068571;28;20227;-76
2024/02/29 09:16:35;;;;;;;16.77;8.43;;;;;;;;;;5065318;28;20748;-75
2024/02/29 09:19:00;;;;;;;14.43;8.30;;;;;;;;;;5064797;28;20232;-75
2024/02/29 09:21:26;;;;;;;12.95;8.55;;;;;;;;;;5068918;28;20181;-75
2024/02/29 09:23:51;;;;;;;19.40;8.65;;;;;;;;;;5070558;28;20185;-75
2024/02/29 09:26:18;;;;;;;14.30;8.35;;;;;;;;;;5066612;28;20292;-76
2024/02/29 09:28:44;;;;;;;14.65;8.60;;;;;;;;;;5060711;28;20653;-76
2024/02/29 09:31:13;;;;;;;14.38;9.02;;;;;;;;;;5043296;28;20197;-76
2024/02/29 09:33:39;;;;;;;16.02;8.43;;;;;;;;;;5069056;28;20185;-76
2024/02/29 09:36:10;;;;;;;14.52;8.55;;;;;;;;;;5065449;28;20241;-75
2024/02/29 09:38:35;;;;;;;15.68;8.90;;;;;;;;;;5064931;28;20285;-76
2024/02/29 09:41:02;;;;;;;17.17;9.32;;;;;;;;;;5086118;28;20265;-76
2024/02/29 09:43:29;;;;;;;14.88;8.95;;;;;;;;;;5071600;28;20184;-75
2024/02/29 09:46:00;;;;;;;14.30;8.52;;;;;;;;;;5070104;28;20184;-75
2024/02/29 09:48:26;;;;;;;17.70;10.10;;;;;;;;;;5070394;28;20188;-75
2024/02/29 09:50:52;;;;;;;15.80;9.57;;;;;;;;;;5070608;28;20200;-76
2024/02/29 09:53:19;;;;;;;14.35;8.07;;;;;;;;;;5064839;28;20181;-76
2024/02/29 09:55:45;;;;;;;13.02;8.07;;;;;;;;;;5071999;28;20205;-76
2024/02/29 09:58:16;;;;;;;15.45;9.23;;;;;;;;;;5067918;28;20279;-76
2024/02/29 10:00:43;;;;;;;13.57;8.13;;;;;;;;;;5072185;28;20189;-75
2024/02/29 10:03:11;;;;;;;15.38;8.93;;;;;;;;;;5052601;28;20275;-76
2024/02/29 10:05:37;;;;;;;15.32;8.85;;;;;;;;;;5066966;28;20618;-76
2024/02/29 10:08:03;;;;;;;19.67;8.88;;;;;;;;;;5048063;28;20209;-76
2024/02/29 10:10:29;;;;;;;16.55;9.15;;;;;;;;;;5057862;28;20257;-76
2024/02/29 10:12:55;;;;;;;13.57;8.05;;;;;;;;;;5064866;28;20189;-76
2024/02/29 10:15:25;;;;;;;13.00;8.18;;;;;;;;;;5071389;28;20216;-76
2024/02/29 10:17:50;;;;;;;14.45;8.23;;;;;;;;;;5052102;28;20181;-77
2024/02/29 10:20:18;;;;;;;13.05;8.45;;;;;;;;;;5069439;28;20544;-75
2024/02/29 10:22:44;;;;;;;14.07;8.70;;;;;;;;;;5034659;28;20185;-76
2024/02/29 10:25:13;;;;;;;12.73;8.50;;;;;;;;;;5029484;28;20192;-75
2024/02/29 10:27:40;;;;;;;14.55;8.80;;;;;;;;;;5013180;28;20187;-75
2024/02/29 10:30:15;;;;;;;16.02;8.73;;;;;;;;;;5041076;28;20190;-75
2024/02/29 10:32:42;;;;;;;13.95;8.45;;;;;;;;;;5049073;28;20660;-75
2024/02/29 10:35:34;;;;;;;12.75;7.95;;;;;;;;;;5053233;28;20224;-76
2024/02/29 10:37:59;;;;;;;14.05;8.85;;;;;;;;;;5069100;28;20204;-75
2024/02/29 10:40:25;;;;;;;12.10;7.82;;;;;;;;;;5058722;28;20186;-75
2024/02/29 10:42:54;;;;;;;13.80;8.70;;;;;;;;;;5064540;28;20642;-75
2024/02/29 10:45:22;;;;;;;12.25;8.30;;;;;;;;;;5058704;28;20525;-76
2024/02/29 10:48:09;;;;;;;12.20;7.88;;;;;;;;;;5068890;28;20273;-75
2024/02/29 10:51:16;;;;;;;14.57;8.40;;;;;;;;;;5069351;28;20188;-75
2024/02/29 10:54:09;;;;;;;14.02;8.25;;;;;;;;;;5050194;28;20180;-74
2024/02/29 10:56:37;;;;;;;14.23;7.97;;;;;;;;;;5048257;28;21095;-75
2024/02/29 10:59:05;;;;;;;15.93;8.40;;;;;;;;;;5042952;28;20207;-74
2024/02/29 11:01:32;;;;;;;12.43;8.55;;;;;;;;;;5056436;28;20197;-74
2024/02/29 11:03:58;;;;;;;12.60;8.65;;;;;;;;;;5047904;28;20193;-76
2024/02/29 11:06:25;;;;;;;15.75;9.40;;;;;;;;;;5062910;28;20242;-74
2024/02/29 11:08:51;;;;;;;14.70;8.75;;;;;;;;;;5068938;28;20184;-74
2024/02/29 11:11:26;;;;;;;13.13;8.18;;;;;;;;;;5071307;28;20181;-75
2024/02/29 11:14:21;;;;;;;12.05;8.07;;;;;;;;;;5052065;28;20192;-74
2024/02/29 11:16:46;;;;;;;15.00;8.88;;;;;;;;;;5041597;28;20715;-75
2024/02/29 11:19:17;;;;;;;12.38;8.00;;;;;;;;;;5051300;28;20211;-77
2024/02/29 11:21:43;;;;;;;15.38;8.50;;;;;;;;;;5068035;28;20563;-75
2024/02/29 11:24:15;;;;;;;11.45;8.20;;;;;;;;;;5051296;28;20177;-75
2024/02/29 11:26:42;;;;;;;11.75;7.32;;;;;;;;;;5068768;28;20757;-75
2024/02/29 11:29:15;;;;;;;13.48;7.68;;;;;;;;;;5069129;28;20559;-75
2024/02/29 11:31:46;;;;;;;12.13;7.70;;;;;;;;;;5069128;28;20303;-75
2024/02/29 11:34:12;;;;;;;14.57;8.40;;;;;;;;;;5067578;28;20381;-75
2024/02/29 11:36:37;;;;;;;14.45;7.97;;;;;;;;;;5075270;28;20281;-75
2024/02/29 11:39:04;;;;;;;14.18;8.82;;;;;;;;;;5063840;28;20534;-76
2024/02/29 11:41:30;;;;;;;12.73;8.65;;;;;;;;;;5054962;28;20577;-76
2024/02/29 11:43:56;;;;;;;12.68;8.48;;;;;;;;;;5059737;28;20186;-75
2024/02/29 11:46:21;;;;;;;11.38;8.20;;;;;;;;;;5063221;28;20270;-75
2024/02/29 11:48:48;;;;;;;11.52;7.85;;;;;;;;;;5044877;28;20241;-76
2024/02/29 11:51:14;;;;;;;13.18;7.97;;;;;;;;;;5046139;28;20268;-75
2024/02/29 11:53:40;;;;;;;12.15;7.70;;;;;;;;;;5065887;28;20173;-75
2024/02/29 11:56:06;;;;;;;13.90;8.60;;;;;;;;;;5061658;28;20517;-75
2024/02/29 11:58:33;;;;;;;13.93;8.23;;;;;;;;;;5062535;28;20268;-75
2024/02/29 12:01:00;;;;;;;14.68;8.38;;;;;;;;;;5069873;28;20194;-75
2024/02/29 12:03:27;;;;;;;11.18;7.80;;;;;;;;;;5057978;28;20216;-75
2024/02/29 12:05:53;;;;;;;14.20;8.10;;;;;;;;;;5064333;28;20183;-75
2024/02/29 12:08:19;;;;;;;12.00;8.10;;;;;;;;;;5039960;28;20283;-75
2024/02/29 12:10:44;;;;;;;11.48;7.85;;;;;;;;;;5068089;28;20648;-75
2024/02/29 12:13:10;;;;;;;13.80;8.75;;;;;;;;;;5064430;28;20684;-75
2024/02/29 12:15:37;;;;;;;13.27;8.43;;;;;;;;;;5068216;28;20212;-76
2024/02/29 12:18:09;;;;;;;13.52;8.85;;;;;;;;;;5068404;28;20185;-76
2024/02/29 12:20:35;;;;;;;15.02;9.23;;;;;;;;;;5042708;28;20189;-76
2024/02/29 12:23:01;;;;;;;15.50;9.00;;;;;;;;;;5070629;28;20709;-76
2024/02/29 12:25:27;;;;;;;14.85;8.57;;;;;;;;;;5067314;28;20196;-76
2024/02/29 12:27:53;;;;;;;17.27;10.10;;;;;;;;;;5067418;28;20664;-75
2024/02/29 12:30:20;;;;;;;14.52;9.02;;;;;;;;;;5068531;28;20632;-77
2024/02/29 12:32:46;;;;;;;16.98;9.40;;;;;;;;;;5070304;28;20205;-76
2024/02/29 12:35:12;;;;;;;15.40;10.10;;;;;;;;;;5067410;28;20303;-76
2024/02/29 12:37:44;;;;;;;13.10;9.13;;;;;;;;;;5068024;28;20267;-77
2024/02/29 12:40:14;;;;;;;15.18;9.45;;;;;;;;;;5067636;28;20177;-77
2024/02/29 12:42:41;;;;;;;15.75;9.90;;;;;;;;;;5058547;28;20192;-77
2024/02/29 12:45:11;;;;;;;15.57;9.82;;;;;;;;;;5050105;28;20192;-77
2024/02/29 12:47:37;;;;;;;12.98;9.38;;;;;;;;;;5064546;28;20275;-77
2024/02/29 12:50:09;;;;;;;15.23;9.80;;;;;;;;;;5054813;28;20263;-77
2024/02/29 12:52:35;;;;;;;14.45;9.20;;;;;;;;;;5040720;28;20625;-78
2024/02/29 12:55:02;;;;;;;16.30;9.80;;;;;;;;;;5046420;28;20227;-78
2024/02/29 12:57:27;;;;;;;14.98;10.02;;;;;;;;;;5048308;28;20731;-78
2024/02/29 12:59:53;;;;;;;15.73;9.48;;;;;;;;;;5049648;28;20185;-77
2024/02/29 13:02:18;;;;;;;16.42;10.00;;;;;;;;;;5062404;28;20586;-78
2024/02/29 13:04:44;;;;;;;17.63;9.57;;;;;;;;;;5046666;28;20196;-77
2024/02/29 13:07:09;;;;;;;16.70;9.40;;;;;;;;;;5046659;28;20250;-77
2024/02/29 13:09:35;;;;;;;19.23;10.32;;;;;;;;;;5051390;28;20196;-78
2024/02/29 13:12:00;;;;;;;16.60;8.95;;;;;;;;;;5051578;28;20211;-78
2024/02/29 13:14:26;;;;;;;14.38;9.45;;;;;;;;;;5053365;28;20196;-78
2024/02/29 13:16:52;;;;;;;17.63;10.73;;;;;;;;;;5054317;28;20235;-78
2024/02/29 13:19:17;;;;;;;15.77;10.43;;;;;;;;;;5048975;28;20213;-77
2024/02/29 13:21:43;;;;;;;18.02;11.10;;;;;;;;;;5050827;28;20262;-77
2024/02/29 13:24:09;;;;;;;13.88;9.52;;;;;;;;;;5048763;28;20197;-77
2024/02/29 13:26:37;;;;;;;17.25;10.85;;;;;;;;;;5058376;28;20275;-77
2024/02/29 13:29:03;;;;;;;16.00;10.40;;;;;;;;;;5048427;28;20185;-77
2024/02/29 13:31:28;;;;;;;15.63;10.02;;;;;;;;;;5062463;28;20504;-77
2024/02/29 13:33:54;;;;;;;14.98;10.00;;;;;;;;;;5064584;28;20307;-77
2024/02/29 13:36:19;;;;;;;16.25;9.98;;;;;;;;;;5063846;28;20213;-77
2024/02/29 13:38:46;;;;;;;14.77;9.60;;;;;;;;;;5067324;28;20193;-77
2024/02/29 13:41:13;;;;;;;14.90;9.80;;;;;;;;;;5063083;28;20192;-76
2024/02/29 13:43:42;;;;;;;19.98;10.02;;;;;;;;;;5063693;28;20277;-78
2024/02/29 13:46:12;;;;;;;15.73;9.80;;;;;;;;;;5065047;28;20173;-77
2024/02/29 13:48:40;;;;;;;14.65;9.60;;;;;;;;;;5046204;28;20686;-77
2024/02/29 13:51:06;;;;;;;17.58;9.40;;;;;;;;;;5063048;28;20185;-77
2024/02/29 13:53:31;;;;;;;16.42;10.07;;;;;;;;;;5065051;28;20272;-77
2024/02/29 13:55:56;;;;;;;13.07;9.45;;;;;;;;;;5063572;28;20212;-77
2024/02/29 13:58:22;;;;;;;13.85;9.32;;;;;;;;;;5066613;28;20227;-77
2024/02/29 14:00:47;;;;;;;15.07;9.95;;;;;;;;;;5061734;28;20176;-77
2024/02/29 14:03:13;;;;;;;13.93;8.88;;;;;;;;;;5065610;28;20323;-77
2024/02/29 14:05:38;;;;;;;17.77;9.35;;;;;;;;;;5066700;28;20188;-77
2024/02/29 14:08:04;;;;;;;15.20;9.35;;;;;;;;;;5065602;28;20495;-76
2024/02/29 14:10:29;;;;;;;14.60;9.80;;;;;;;;;;5060828;28;20192;-78
2024/02/29 14:12:55;;;;;;;12.13;8.68;;;;;;;;;;5052634;28;20181;-80
2024/02/29 14:15:21;;;;;;;16.33;9.02;;;;;;;;;;5048063;28;20185;-80
2024/02/29 14:17:48;;;;;;;17.23;8.85;;;;;;;;;;5063019;28;20185;-77
2024/02/29 14:20:13;;;;;;;15.00;9.20;;;;;;;;;;5051925;28;20208;-79
2024/02/29 14:22:38;;;;;;;15.15;8.55;;;;;;;;;;5061219;28;20694;-78